Time;durP1;ratioP1;P1;durP2;ratioP2;P2;SDS_P1;SDS_P2;PMS_P1;PMS_P2;Temp;Humidity;BMP_temperature;BMP_pressure;BME280_temperature;BME280_humidity;BME280_pressure;Samples;Min_cycle;Max_cycle;Signal;HPM_P1;HPM_P2
2021/05/22 00:00:08;;;;;;;1999.90;999.90;;;11.20;99.90;;;;;;5078902;28;20178;-67
2021/05/22 00:02:34;;;;;;;1999.90;999.90;;;11.10;99.90;;;;;;5078570;28;20201;-66
2021/05/22 00:04:59;;;;;;;1999.90;999.90;;;11.10;99.90;;;;;;5079951;28;20404;-67
2021/05/22 00:07:25;;;;;;;1999.90;999.90;;;11.00;99.90;;;;;;5080421;28;20256;-66
2021/05/22 00:09:50;;;;;;;1999.90;999.90;;;11.10;99.90;;;;;;5080808;28;20237;-65
2021/05/22 00:12:16;;;;;;;1999.90;999.90;;;11.10;99.90;;;;;;5081250;28;20635;-66
2021/05/22 00:14:42;;;;;;;1999.90;999.90;;;11.10;99.90;;;;;;5080095;28;20174;-64
2021/05/22 00:17:08;;;;;;;1999.90;999.90;;;11.00;99.90;;;;;;5080991;28;20408;-67
2021/05/22 00:19:33;;;;;;;1999.90;999.90;;;11.00;99.90;;;;;;5079818;28;20183;-66
2021/05/22 00:21:59;;;;;;;1999.90;999.90;;;11.00;99.90;;;;;;5077318;28;20198;-67
2021/05/22 00:24:25;;;;;;;1999.90;999.90;;;11.00;99.90;;;;;;5077480;28;20166;-66
2021/05/22 00:26:50;;;;;;;1999.90;999.90;;;11.00;99.90;;;;;;5077215;28;20170;-67
2021/05/22 00:29:16;;;;;;;1999.90;999.90;;;11.10;99.90;;;;;;5076448;28;20195;-68
2021/05/22 00:31:41;;;;;;;1999.90;999.90;;;11.00;99.90;;;;;;5076195;28;20178;-67
2021/05/22 00:34:08;;;;;;;1999.90;999.90;;;11.10;99.90;;;;;;5075885;28;20174;-66
2021/05/22 00:36:33;;;;;;;1999.90;999.90;;;11.20;99.90;;;;;;5075469;28;20185;-66
2021/05/22 00:38:59;;;;;;;1999.90;999.90;;;11.10;99.90;;;;;;5077209;28;20436;-64
2021/05/22 00:41:25;;;;;;;1999.90;999.90;;;11.10;99.90;;;;;;5075908;28;20568;-67
2021/05/22 00:43:50;;;;;;;1999.90;999.90;;;11.10;99.90;;;;;;5076149;28;20532;-67
2021/05/22 00:46:16;;;;;;;1999.90;999.90;;;11.10;99.90;;;;;;5076417;28;20653;-67
2021/05/22 00:48:42;;;;;;;1999.90;999.90;;;11.20;99.90;;;;;;5076140;28;20677;-66
2021/05/22 00:51:07;;;;;;;1999.90;999.90;;;11.20;99.90;;;;;;5076388;28;20166;-67
2021/05/22 00:53:33;;;;;;;1999.90;999.90;;;11.10;99.90;;;;;;5077463;28;20162;-68
2021/05/22 00:56:01;;;;;;;1999.90;999.90;;;11.10;99.90;;;;;;5075957;28;20174;-66
2021/05/22 00:58:27;;;;;;;1999.90;999.90;;;11.00;99.90;;;;;;5077956;28;20197;-67
2021/05/22 01:00:54;;;;;;;1999.90;999.90;;;11.00;99.90;;;;;;5076618;28;20452;-66
2021/05/22 01:03:26;;;;;;;1999.90;999.90;;;11.00;99.90;;;;;;5074373;28;20416;-66
2021/05/22 01:05:58;;;;;;;1999.90;999.90;;;11.00;99.90;;;;;;5079139;28;20474;-66
2021/05/22 01:08:24;;;;;;;1999.90;999.90;;;11.00;99.90;;;;;;5080040;28;20428;-67
2021/05/22 01:11:03;;;;;;;1999.90;999.90;;;11.00;99.90;;;;;;5076980;28;20518;-67
2021/05/22 01:13:35;;;;;;;1999.90;999.90;;;10.90;99.90;;;;;;5075818;28;20696;-67
2021/05/22 01:16:01;;;;;;;1999.90;999.90;;;10.90;99.90;;;;;;5079726;28;20439;-66
2021/05/22 01:18:27;;;;;;;1999.90;999.90;;;10.90;99.90;;;;;;5076362;28;20421;-66
2021/05/22 01:20:56;;;;;;;1999.90;999.90;;;10.90;99.90;;;;;;5072941;28;20497;-65
2021/05/22 01:23:30;;;;;;;1999.90;999.90;;;10.90;99.90;;;;;;5073079;28;20454;-66
2021/05/22 01:25:56;;;;;;;1999.90;999.90;;;10.90;99.90;;;;;;5072742;28;20401;-65
2021/05/22 01:28:22;;;;;;;1999.90;999.90;;;10.90;99.90;;;;;;5072935;28;20428;-65
2021/05/22 01:30:48;;;;;;;1999.90;999.90;;;10.90;99.90;;;;;;5072911;28;20539;-66
2021/05/22 01:33:14;;;;;;;1999.90;999.90;;;11.00;99.90;;;;;;5072861;28;20487;-66
2021/05/22 01:35:41;;;;;;;1999.90;999.90;;;11.00;99.90;;;;;;5072150;28;20490;-67
2021/05/22 01:38:08;;;;;;;1999.90;999.90;;;11.00;99.90;;;;;;5072713;28;20194;-65
2021/05/22 01:40:34;;;;;;;1999.90;999.90;;;11.00;99.90;;;;;;5072571;28;20404;-67
2021/05/22 01:43:00;;;;;;;1999.90;999.90;;;11.00;99.90;;;;;;5072809;28;20753;-66
2021/05/22 01:45:28;;;;;;;1999.90;999.90;;;11.00;99.90;;;;;;5072328;28;20405;-66
2021/05/22 01:47:55;;;;;;;1999.90;999.90;;;11.10;99.90;;;;;;5072359;28;20213;-66
2021/05/22 01:50:22;;;;;;;1999.90;999.90;;;11.00;99.90;;;;;;5072561;28;20405;-67
2021/05/22 01:52:51;;;;;;;1999.90;999.90;;;11.10;99.90;;;;;;5072504;28;20503;-66
2021/05/22 01:55:18;;;;;;;1999.90;999.90;;;11.10;99.90;;;;;;5072191;28;20413;-65
2021/05/22 01:57:44;;;;;;;1999.90;999.90;;;11.10;99.90;;;;;;5072354;28;20428;-65
2021/05/22 02:00:12;;;;;;;1999.90;999.90;;;11.00;99.90;;;;;;5072278;28;20402;-65
2021/05/22 02:03:01;;;;;;;1999.90;999.90;;;11.00;99.90;;;;;;5072155;28;20452;-65
2021/05/22 02:05:29;;;;;;;1999.90;999.90;;;11.00;99.90;;;;;;5064506;28;20800;-66
2021/05/22 02:07:57;;;;;;;1999.90;999.90;;;11.00;99.90;;;;;;5072147;28;20802;-65
2021/05/22 02:10:24;;;;;;;1999.90;999.90;;;11.00;99.90;;;;;;5072210;28;20786;-65
2021/05/22 02:12:52;;;;;;;1999.90;999.90;;;11.00;99.90;;;;;;5072112;28;20417;-65
2021/05/22 02:15:19;;;;;;;1999.90;999.90;;;11.00;99.90;;;;;;5071601;28;20909;-64
2021/05/22 02:17:47;;;;;;;1999.90;999.90;;;10.90;99.90;;;;;;5072272;28;20436;-66
2021/05/22 02:20:14;;;;;;;1999.90;999.90;;;11.00;99.90;;;;;;5073092;28;20419;-67
2021/05/22 02:22:42;;;;;;;1999.90;999.90;;;11.00;99.90;;;;;;5076306;28;20909;-67
2021/05/22 02:25:08;;;;;;;1999.90;999.90;;;11.00;99.90;;;;;;5075944;28;20412;-67
2021/05/22 02:27:35;;;;;;;1999.90;999.90;;;11.00;99.90;;;;;;5075022;28;20486;-67
2021/05/22 02:30:05;;;;;;;1999.90;999.90;;;11.00;99.90;;;;;;5077860;28;20412;-67
2021/05/22 02:32:31;;;;;;;1999.90;999.90;;;11.00;99.90;;;;;;5078638;28;20911;-67
2021/05/22 02:34:58;;;;;;;1999.90;999.90;;;11.00;99.90;;;;;;5076597;28;20404;-67
2021/05/22 02:37:30;;;;;;;1999.90;999.90;;;10.90;99.90;;;;;;5077387;28;20408;-66
2021/05/22 02:39:58;;;;;;;1999.90;999.90;;;10.90;99.90;;;;;;5077339;28;20416;-66
2021/05/22 02:42:25;;;;;;;1999.90;999.90;;;10.90;99.90;;;;;;5075959;28;20460;-67
2021/05/22 02:44:53;;;;;;;1999.90;999.90;;;10.90;99.90;;;;;;5078664;28;20413;-66
2021/05/22 02:47:22;;;;;;;1999.90;999.90;;;10.90;99.90;;;;;;5077649;28;20484;-66
2021/05/22 02:49:49;;;;;;;1999.90;999.90;;;10.90;99.90;;;;;;5079010;28;20413;-67
2021/05/22 02:52:19;;;;;;;1999.90;999.90;;;10.80;99.90;;;;;;5080047;28;20411;-67
2021/05/22 02:54:47;;;;;;;1999.90;999.90;;;10.80;99.90;;;;;;5076712;28;20490;-66
2021/05/22 02:57:14;;;;;;;1999.90;999.90;;;10.80;99.90;;;;;;5077372;28;20412;-66
2021/05/22 02:59:40;;;;;;;1999.90;999.90;;;10.80;99.90;;;;;;5077573;28;20510;-67
2021/05/22 03:02:07;;;;;;;1999.90;999.90;;;10.80;99.90;;;;;;5076192;28;20981;-67
2021/05/22 03:04:34;;;;;;;1999.90;999.90;;;10.80;99.90;;;;;;5076422;28;20422;-65
2021/05/22 03:07:03;;;;;;;1999.90;999.90;;;10.80;99.90;;;;;;5077958;28;20404;-66
2021/05/22 03:09:29;;;;;;;1999.90;999.90;;;10.80;99.90;;;;;;5077601;28;20473;-67
2021/05/22 03:11:56;;;;;;;1999.90;999.90;;;10.80;99.90;;;;;;5076737;28;20409;-66
2021/05/22 03:14:22;;;;;;;1999.90;999.90;;;10.80;99.90;;;;;;5076657;28;20407;-66
2021/05/22 03:16:48;;;;;;;1999.90;999.90;;;10.80;99.90;;;;;;5075781;28;20484;-67
2021/05/22 03:19:13;;;;;;;1999.90;999.90;;;10.80;99.90;;;;;;5076652;28;20499;-66
2021/05/22 03:21:39;;;;;;;1999.90;999.90;;;10.80;99.90;;;;;;5076716;28;20337;-66
2021/05/22 03:24:06;;;;;;;1999.90;999.90;;;10.80;99.90;;;;;;5077171;28;20792;-67
2021/05/22 03:26:32;;;;;;;1999.90;999.90;;;10.90;99.90;;;;;;5078272;28;20178;-66
2021/05/22 03:28:57;;;;;;;1999.90;999.90;;;10.80;99.90;;;;;;5082595;28;20448;-67
2021/05/22 03:31:23;;;;;;;1999.90;999.90;;;10.80;99.90;;;;;;5081222;28;20186;-67
2021/05/22 03:33:49;;;;;;;1999.90;999.90;;;10.80;99.90;;;;;;5080198;28;20636;-66
2021/05/22 03:36:14;;;;;;;1999.90;999.90;;;10.80;99.90;;;;;;5078189;28;20258;-67
2021/05/22 03:38:40;;;;;;;1999.90;999.90;;;10.80;99.90;;;;;;5079045;28;20217;-66
2021/05/22 03:41:06;;;;;;;1999.90;999.90;;;10.80;99.90;;;;;;5077809;28;20202;-67
2021/05/22 03:43:32;;;;;;;1999.90;999.90;;;10.80;99.90;;;;;;5078687;28;20181;-67
2021/05/22 03:45:58;;;;;;;1999.90;999.90;;;10.80;99.90;;;;;;5078673;28;20408;-66
2021/05/22 03:48:24;;;;;;;1999.90;999.90;;;10.80;99.90;;;;;;5077647;28;20475;-64
2021/05/22 03:50:50;;;;;;;1999.90;999.90;;;10.80;99.90;;;;;;5074855;28;20188;-63
2021/05/22 03:53:15;;;;;;;1999.90;999.90;;;10.90;99.90;;;;;;5074818;28;20422;-64
2021/05/22 03:55:41;;;;;;;1999.90;999.90;;;10.90;99.90;;;;;;5074602;28;20181;-64
2021/05/22 03:58:07;;;;;;;1999.90;999.90;;;11.00;99.90;;;;;;5074688;28;20187;-65
2021/05/22 04:00:33;;;;;;;1999.90;999.90;;;11.00;99.90;;;;;;5074577;28;20186;-65
2021/05/22 04:02:59;;;;;;;1999.90;999.90;;;11.00;99.90;;;;;;5074596;28;20406;-66
2021/05/22 04:05:25;;;;;;;1999.90;999.90;;;11.10;99.90;;;;;;5074271;28;20775;-65
2021/05/22 04:07:51;;;;;;;1999.90;999.90;;;11.10;99.90;;;;;;5074503;28;20190;-64
2021/05/22 04:10:16;;;;;;;1999.90;999.90;;;11.10;99.90;;;;;;5074629;28;20696;-64
2021/05/22 04:12:42;;;;;;;1999.90;999.90;;;11.20;99.90;;;;;;5074471;28;20181;-64
2021/05/22 04:15:08;;;;;;;1999.90;999.90;;;11.20;99.90;;;;;;5074055;28;20189;-64
2021/05/22 04:17:34;;;;;;;1999.90;999.90;;;11.20;99.90;;;;;;5074372;28;20779;-64
2021/05/22 04:20:00;;;;;;;1999.90;999.90;;;11.30;99.90;;;;;;5074267;28;20403;-64
2021/05/22 04:22:25;;;;;;;1999.90;999.90;;;11.30;99.90;;;;;;5074204;28;20210;-64
2021/05/22 04:24:51;;;;;;;1999.90;999.90;;;11.30;99.90;;;;;;5073979;28;20174;-66
2021/05/22 04:27:17;;;;;;;1999.90;999.90;;;11.40;99.90;;;;;;5074129;28;20250;-64
2021/05/22 04:29:42;;;;;;;1999.90;999.90;;;11.40;99.90;;;;;;5074176;28;20272;-64
2021/05/22 04:32:08;;;;;;;1999.90;999.90;;;11.40;99.90;;;;;;5074229;28;20175;-64
2021/05/22 04:34:34;;;;;;;1999.90;999.90;;;11.40;99.90;;;;;;5073962;28;20168;-64
2021/05/22 04:37:00;;;;;;;1999.90;999.90;;;11.40;99.90;;;;;;5073257;28;20208;-65
2021/05/22 04:39:26;;;;;;;1999.90;999.90;;;11.50;99.90;;;;;;5073790;28;20284;-65
2021/05/22 04:41:51;;;;;;;1999.90;999.90;;;11.50;99.90;;;;;;5073817;28;20463;-64
2021/05/22 04:44:17;;;;;;;1999.90;999.90;;;11.50;99.90;;;;;;5073895;28;20177;-64
2021/05/22 04:46:42;;;;;;;1999.90;999.90;;;11.50;99.90;;;;;;5073620;28;20171;-64
2021/05/22 04:49:08;;;;;;;1999.90;999.90;;;11.50;99.90;;;;;;5073520;28;20267;-64
2021/05/22 04:51:34;;;;;;;1999.90;999.90;;;11.50;99.90;;;;;;5073724;28;20521;-66
2021/05/22 04:54:07;;;;;;;1999.90;999.90;;;11.50;99.90;;;;;;5073870;28;20178;-64
2021/05/22 04:56:33;;;;;;;1999.90;999.90;;;11.50;99.90;;;;;;5073380;28;20171;-65
2021/05/22 04:58:59;;;;;;;1999.90;999.90;;;11.50;99.90;;;;;;5073505;28;20432;-65
2021/05/22 05:01:25;;;;;;;1999.90;999.90;;;11.50;99.90;;;;;;5073440;28;20296;-64
2021/05/22 05:03:50;;;;;;;1999.90;999.90;;;11.50;99.90;;;;;;5073455;28;20748;-65
2021/05/22 05:06:16;;;;;;;1999.90;999.90;;;11.50;99.90;;;;;;5073160;28;20893;-66
2021/05/22 05:08:42;;;;;;;1999.90;999.90;;;11.50;99.90;;;;;;5073392;28;20183;-64
2021/05/22 05:11:08;;;;;;;1999.90;999.90;;;11.50;99.90;;;;;;5073304;28;20925;-65
2021/05/22 05:13:34;;;;;;;1999.90;999.90;;;11.50;99.90;;;;;;5073395;28;20411;-64
2021/05/22 05:16:01;;;;;;;1999.90;999.90;;;11.50;99.90;;;;;;5072962;28;20175;-64
2021/05/22 05:18:27;;;;;;;1999.90;999.90;;;11.50;99.90;;;;;;5073075;28;20486;-66
2021/05/22 05:20:52;;;;;;;1999.90;999.90;;;11.60;99.90;;;;;;5073091;28;20401;-66
2021/05/22 05:23:18;;;;;;;1999.90;999.90;;;11.60;99.90;;;;;;5073167;28;20689;-64
2021/05/22 05:25:44;;;;;;;1999.90;999.90;;;11.60;99.90;;;;;;5072753;28;20536;-64
2021/05/22 05:28:09;;;;;;;1999.90;999.90;;;11.70;99.90;;;;;;5072910;28;20205;-65
2021/05/22 05:30:35;;;;;;;1999.90;999.90;;;11.70;99.90;;;;;;5072898;28;20170;-65
2021/05/22 05:33:00;;;;;;;1999.90;999.90;;;11.70;99.90;;;;;;5072993;28;20181;-64
2021/05/22 05:35:26;;;;;;;1999.90;999.90;;;11.80;99.90;;;;;;5072750;28;20595;-64
2021/05/22 05:37:52;;;;;;;1999.90;999.90;;;11.80;99.90;;;;;;5072676;28;20193;-64
2021/05/22 05:40:20;;;;;;;1999.90;999.90;;;11.80;99.90;;;;;;5072768;28;20174;-64
2021/05/22 05:42:47;;;;;;;1999.90;999.90;;;11.80;99.90;;;;;;5072710;28;20686;-64
2021/05/22 05:45:13;;;;;;;1999.90;999.90;;;11.90;99.90;;;;;;5072425;28;20901;-64
2021/05/22 05:47:39;;;;;;;1999.90;999.90;;;11.90;99.90;;;;;;5072680;28;20794;-64
2021/05/22 05:50:05;;;;;;;1999.90;999.90;;;11.90;99.90;;;;;;5072182;28;20408;-64
2021/05/22 05:52:30;;;;;;;1999.90;999.90;;;11.80;99.90;;;;;;5072497;28;20178;-64
2021/05/22 05:54:56;;;;;;;1999.90;999.90;;;11.90;99.90;;;;;;5072192;28;20428;-64
2021/05/22 05:57:22;;;;;;;1999.90;999.90;;;11.90;99.90;;;;;;5072430;28;20260;-65
2021/05/22 05:59:47;;;;;;;1999.90;999.90;;;11.90;99.90;;;;;;5072494;28;20166;-65
2021/05/22 06:02:13;;;;;;;1999.90;999.90;;;11.90;99.90;;;;;;5072331;28;20208;-64
2021/05/22 06:04:38;;;;;;;1999.90;999.90;;;12.10;99.90;;;;;;5072358;28;20171;-64
2021/05/22 06:07:04;;;;;;;1999.90;999.90;;;12.10;99.90;;;;;;5072232;28;20201;-65
2021/05/22 06:09:30;;;;;;;1999.90;999.90;;;12.10;99.90;;;;;;5072164;28;20194;-65
2021/05/22 06:11:55;;;;;;;1999.90;999.90;;;12.10;99.90;;;;;;5072245;28;20175;-66
2021/05/22 06:14:33;;;;;;;1999.90;999.90;;;12.10;99.90;;;;;;5072139;28;20179;-66
2021/05/22 06:16:58;;;;;;;1999.90;999.90;;;12.10;99.90;;;;;;5071966;28;20264;-65
2021/05/22 06:19:24;;;;;;;1999.90;999.90;;;12.20;99.90;;;;;;5072041;28;20461;-65
2021/05/22 06:21:50;;;;;;;1999.90;999.90;;;12.30;99.90;;;;;;5072142;28;20300;-66
2021/05/22 06:24:15;;;;;;;1999.90;999.90;;;12.30;99.90;;;;;;5072090;28;20173;-66
2021/05/22 06:26:41;;;;;;;1999.90;999.90;;;12.30;99.90;;;;;;5071821;28;20170;-66
2021/05/22 06:29:07;;;;;;;1999.90;999.90;;;12.40;99.90;;;;;;5071941;28;20244;-66
2021/05/22 06:31:33;;;;;;;1999.90;999.90;;;12.40;99.90;;;;;;5071987;28;20170;-66
2021/05/22 06:33:59;;;;;;;1999.90;999.90;;;12.50;99.90;;;;;;5072085;28;20182;-64
2021/05/22 06:36:27;;;;;;;1999.90;999.90;;;12.60;99.90;;;;;;5071736;28;20175;-64
2021/05/22 06:38:53;;;;;;;1999.90;999.90;;;12.40;99.90;;;;;;5071566;28;20436;-64
2021/05/22 06:41:20;;;;;;;1999.90;999.90;;;12.40;99.90;;;;;;5071731;28;20448;-64
2021/05/22 06:43:45;;;;;;;1999.90;999.90;;;12.30;99.90;;;;;;5071842;28;20412;-64
2021/05/22 06:48:40;;;;;;;1999.90;999.90;;;12.30;99.90;;;;;;5071676;28;20621;-65
2021/05/22 06:51:06;;;;;;;1999.90;999.90;;;12.10;99.90;;;;;;5071878;28;20812;-65
2021/05/22 06:53:32;;;;;;;1999.90;999.90;;;11.60;99.90;;;;;;5071780;28;20462;-64
2021/05/22 06:55:59;;;;;;;1999.90;999.90;;;11.10;99.90;;;;;;5071532;28;20171;-64
2021/05/22 06:58:24;;;;;;;1999.90;999.90;;;10.90;99.90;;;;;;5071663;28;20223;-64
2021/05/22 07:00:50;;;;;;;1999.90;999.90;;;10.70;99.90;;;;;;5071720;28;20899;-64
2021/05/22 07:03:16;;;;;;;1999.90;999.90;;;10.70;99.90;;;;;;5075426;28;20411;-63
2021/05/22 07:05:41;;;;;;;1999.90;999.90;;;10.70;99.90;;;;;;5075538;28;20538;-64
2021/05/22 07:08:07;;;;;;;1999.90;999.90;;;10.80;99.90;;;;;;5075670;28;20189;-66
2021/05/22 07:10:33;;;;;;;1999.90;999.90;;;11.00;99.90;;;;;;5075682;28;20280;-63
2021/05/22 07:12:59;;;;;;;1999.90;999.90;;;11.10;99.90;;;;;;5075610;28;20181;-63
2021/05/22 07:15:24;;;;;;;1999.90;999.90;;;11.20;99.90;;;;;;5075252;28;20170;-64
2021/05/22 07:17:50;;;;;;;1999.90;999.90;;;11.30;99.90;;;;;;5075464;28;20266;-65
2021/05/22 07:20:16;;;;;;;1999.90;999.90;;;11.40;99.90;;;;;;5075511;28;20201;-64
2021/05/22 07:22:42;;;;;;;1999.90;999.90;;;11.50;99.90;;;;;;5075261;28;20211;-65
2021/05/22 07:25:08;;;;;;;1999.90;999.90;;;11.50;99.90;;;;;;5074939;28;20908;-65
2021/05/22 07:27:36;;;;;;;1999.90;999.90;;;11.60;99.90;;;;;;5075137;28;20544;-65
2021/05/22 07:30:04;;;;;;;1999.90;999.90;;;11.60;99.90;;;;;;5075296;28;20424;-64
2021/05/22 07:32:29;;;;;;;1999.90;999.90;;;11.70;99.90;;;;;;5075253;28;20412;-64
2021/05/22 07:34:55;;;;;;;1999.90;999.90;;;11.70;99.90;;;;;;5074905;28;20414;-65
2021/05/22 07:37:21;;;;;;;1999.90;999.90;;;11.70;99.90;;;;;;5074877;28;20182;-65
2021/05/22 07:39:46;;;;;;;1999.90;999.90;;;11.70;99.90;;;;;;5075045;28;20259;-65
2021/05/22 07:42:12;;;;;;;1999.90;999.90;;;11.60;99.90;;;;;;5073639;28;20206;-64
2021/05/22 07:44:37;;;;;;;1999.90;999.90;;;11.50;99.90;;;;;;5068557;28;20168;-65
2021/05/22 07:47:03;;;;;;;1999.90;999.90;;;11.30;99.90;;;;;;5057817;28;20171;-65
2021/05/22 07:49:37;;;;;;;1999.90;999.90;;;11.20;99.90;;;;;;5054540;28;20198;-64
2021/05/22 07:52:07;;;;;;;1999.90;999.90;;;11.00;99.90;;;;;;5054869;28;20182;-64
2021/05/22 07:54:35;;;;;;;1999.90;999.90;;;10.90;99.90;;;;;;5054719;28;20413;-64
2021/05/22 07:57:02;;;;;;;1999.90;999.90;;;10.90;99.90;;;;;;5054694;28;20491;-65
2021/05/22 07:59:28;;;;;;;1999.90;999.90;;;10.90;99.90;;;;;;5054652;28;20433;-64
2021/05/22 08:01:54;;;;;;;1999.90;999.90;;;10.90;99.90;;;;;;5054597;28;20460;-63
2021/05/22 08:04:20;;;;;;;1999.90;999.90;;;11.00;99.90;;;;;;5054587;28;20178;-63
2021/05/22 08:06:45;;;;;;;1999.90;999.90;;;11.10;99.90;;;;;;5054369;28;20497;-64
2021/05/22 08:09:11;;;;;;;1999.90;999.90;;;11.30;99.90;;;;;;5054490;28;20191;-65
2021/05/22 08:11:36;;;;;;;1999.90;999.90;;;11.40;99.90;;;;;;5054530;28;20168;-63
2021/05/22 08:14:02;;;;;;;1999.90;999.90;;;11.40;99.90;;;;;;5054191;28;20189;-63
2021/05/22 08:16:28;;;;;;;1999.90;999.90;;;11.60;99.90;;;;;;5054090;28;20564;-63
2021/05/22 08:18:54;;;;;;;1999.90;999.90;;;11.70;99.90;;;;;;5049785;28;20429;-65
2021/05/22 08:21:22;;;;;;;1999.90;999.90;;;11.80;99.90;;;;;;5051656;28;20191;-67
2021/05/22 08:23:48;;;;;;;1999.90;999.90;;;11.90;99.90;;;;;;5051049;28;20174;-64
2021/05/22 08:26:14;;;;;;;1999.90;999.90;;;12.00;99.90;;;;;;5051835;28;20410;-64
2021/05/22 08:28:40;;;;;;;1999.90;999.90;;;12.00;99.90;;;;;;5052511;28;20429;-64
2021/05/22 08:31:05;;;;;;;1999.90;999.90;;;12.00;99.90;;;;;;5052789;28;20178;-63
2021/05/22 08:33:31;;;;;;;1999.90;999.90;;;12.00;99.90;;;;;;5052273;28;20255;-65
2021/05/22 08:35:57;;;;;;;1999.90;999.90;;;12.00;99.90;;;;;;5053116;28;20552;-65
2021/05/22 08:38:22;;;;;;;1999.90;999.90;;;12.00;99.90;;;;;;5052575;28;20191;-64
2021/05/22 08:40:48;;;;;;;1999.90;999.90;;;12.00;99.90;;;;;;5051766;28;20175;-66
2021/05/22 08:43:14;;;;;;;1999.90;999.90;;;12.00;99.90;;;;;;5052000;28;20170;-65
2021/05/22 08:45:39;;;;;;;1999.90;999.90;;;11.90;99.90;;;;;;5052401;28;20176;-64
2021/05/22 08:48:06;;;;;;;1999.90;999.90;;;11.80;99.90;;;;;;5051816;28;20207;-63
2021/05/22 08:50:32;;;;;;;1999.90;999.90;;;11.70;99.90;;;;;;5051774;28;20296;-65
2021/05/22 08:52:58;;;;;;;1999.90;999.90;;;11.60;99.90;;;;;;5051797;28;20887;-65
2021/05/22 08:55:24;;;;;;;1999.90;999.90;;;11.70;99.90;;;;;;5050904;28;20172;-64
2021/05/22 08:57:50;;;;;;;1999.90;999.90;;;11.70;99.90;;;;;;5051733;28;20432;-65
2021/05/22 09:00:19;;;;;;;1999.90;999.90;;;11.70;99.90;;;;;;5051612;28;20402;-66
2021/05/22 09:02:45;;;;;;;1999.90;999.90;;;11.70;99.90;;;;;;5051097;28;20990;-66
2021/05/22 09:05:29;;;;;;;1999.90;999.90;;;11.80;99.90;;;;;;5051061;28;20918;-65
2021/05/22 09:08:00;;;;;;;1999.90;999.90;;;11.90;99.90;;;;;;5051703;28;20432;-66
2021/05/22 09:10:29;;;;;;;1999.90;999.90;;;12.10;99.90;;;;;;5051225;28;20982;-65
2021/05/22 09:12:59;;;;;;;1999.90;999.90;;;12.10;99.90;;;;;;5051882;28;20500;-67
2021/05/22 09:15:26;;;;;;;1999.90;999.90;;;12.10;99.90;;;;;;5066168;28;20453;-64
2021/05/22 09:17:55;;;;;;;1999.90;999.90;;;12.20;99.90;;;;;;5065593;28;21247;-67
2021/05/22 09:20:29;;;;;;;1999.90;999.90;;;12.40;99.90;;;;;;5066507;28;20445;-66
2021/05/22 09:23:11;;;;;;;1999.90;999.90;;;12.50;99.90;;;;;;5067599;28;20449;-65
2021/05/22 09:25:45;;;;;;;1999.90;999.90;;;12.50;99.90;;;;;;5064184;28;20403;-66
2021/05/22 09:28:13;;;;;;;1999.90;999.90;;;12.70;99.90;;;;;;5063721;28;20433;-67
2021/05/22 09:30:40;;;;;;;1999.90;999.90;;;12.70;99.90;;;;;;5064669;28;20406;-66
2021/05/22 09:33:15;;;;;;;1999.90;999.90;;;12.80;99.90;;;;;;5063407;28;20449;-66
2021/05/22 09:35:49;;;;;;;1999.90;999.90;;;12.90;99.90;;;;;;5064505;28;20417;-66
2021/05/22 09:38:15;;;;;;;1999.90;999.90;;;12.90;99.90;;;;;;5067442;28;20435;-66
2021/05/22 09:40:42;;;;;;;1999.90;999.90;;;12.80;99.90;;;;;;5050099;28;20930;-66
2021/05/22 09:43:09;;;;;;;1999.90;999.90;;;12.90;99.90;;;;;;5051062;28;20208;-65
2021/05/22 09:45:45;;;;;;;1999.90;999.90;;;13.00;99.90;;;;;;5049284;28;20472;-66
2021/05/22 09:48:12;;;;;;;1999.90;999.90;;;13.10;99.90;;;;;;5050536;28;20471;-65
2021/05/22 09:50:43;;;;;;;1999.90;999.90;;;13.20;99.90;;;;;;5050836;28;20405;-65
2021/05/22 09:53:26;;;;;;;1999.90;999.90;;;13.20;99.90;;;;;;5050734;28;20792;-65
2021/05/22 09:56:15;;;;;;;1999.90;999.90;;;13.40;99.90;;;;;;5050189;28;20407;-65
2021/05/22 09:58:45;;;;;;;1999.90;999.90;;;13.50;99.90;;;;;;5040910;28;20491;-66
2021/05/22 10:01:12;;;;;;;1999.90;999.90;;;13.60;99.90;;;;;;5050645;28;20457;-66
2021/05/22 10:03:38;;;;;;;1999.90;999.90;;;13.70;99.90;;;;;;5049801;28;20959;-66
2021/05/22 10:06:04;;;;;;;1999.90;999.90;;;13.80;99.90;;;;;;5050176;28;20410;-65
2021/05/22 10:08:30;;;;;;;1999.90;999.90;;;13.80;99.90;;;;;;5050559;28;20439;-66
2021/05/22 10:10:57;;;;;;;1999.90;999.90;;;13.60;99.90;;;;;;5050137;28;20808;-65
2021/05/22 10:13:25;;;;;;;1999.90;999.90;;;13.70;99.90;;;;;;5050258;28;20469;-66
2021/05/22 10:15:53;;;;;;;1999.90;999.90;;;13.80;99.90;;;;;;5050299;28;20399;-65
2021/05/22 10:18:21;;;;;;;1999.90;999.90;;;13.90;99.90;;;;;;5049697;28;20451;-66
2021/05/22 10:20:47;;;;;;;1999.90;999.90;;;13.90;99.90;;;;;;5050109;28;20410;-66
2021/05/22 10:23:13;;;;;;;1999.90;999.90;;;13.90;99.90;;;;;;5050119;28;20482;-64
2021/05/22 10:25:40;;;;;;;1999.90;999.90;;;14.00;99.90;;;;;;5049499;28;20398;-65
2021/05/22 10:28:07;;;;;;;1999.90;999.90;;;14.10;99.90;;;;;;5050125;28;20453;-67
2021/05/22 10:30:33;;;;;;;1999.90;999.90;;;14.00;99.90;;;;;;5049800;28;20398;-66
2021/05/22 10:33:07;;;;;;;1999.90;999.90;;;13.90;99.90;;;;;;5049247;28;20436;-66
2021/05/22 10:35:44;;;;;;;1999.90;999.90;;;14.10;99.90;;;;;;5049638;28;20486;-66
2021/05/22 10:38:10;;;;;;;1999.90;999.90;;;14.20;99.90;;;;;;5050223;28;20434;-66
2021/05/22 10:40:49;;;;;;;1999.90;999.90;;;14.10;99.90;;;;;;5049116;28;20399;-67
2021/05/22 10:43:15;;;;;;;1999.90;999.90;;;14.00;99.90;;;;;;5049475;28;20409;-65
2021/05/22 10:45:43;;;;;;;1999.90;999.90;;;14.00;99.90;;;;;;5049215;28;20405;-65
2021/05/22 10:48:17;;;;;;;1999.90;999.90;;;13.70;99.90;;;;;;5049064;28;20491;-66
2021/05/22 10:50:47;;;;;;;1999.90;999.90;;;13.60;99.90;;;;;;5049222;28;20394;-65
2021/05/22 10:53:21;;;;;;;1999.90;999.90;;;13.60;99.90;;;;;;5048799;28;20419;-66
2021/05/22 10:56:07;;;;;;;1999.90;999.90;;;13.60;99.90;;;;;;5049006;28;20436;-65
2021/05/22 10:58:37;;;;;;;1999.90;999.90;;;13.60;99.90;;;;;;5049538;28;20421;-65
2021/05/22 11:01:59;;;;;;;1999.90;999.90;;;13.50;99.90;;;;;;5048753;28;20479;-65
2021/05/22 11:04:19;;;;;;;1999.90;999.90;;;13.50;99.90;;;;;;5048114;28;20413;-66
2021/05/22 11:06:58;;;;;;;1999.90;999.90;;;13.50;99.90;;;;;;5060883;28;20889;-64
2021/05/22 11:09:34;;;;;;;1999.90;999.90;;;13.40;99.90;;;;;;5069363;28;20414;-65
2021/05/22 11:12:02;;;;;;;1999.90;999.90;;;13.30;99.90;;;;;;5068263;28;20986;-65
2021/05/22 11:14:52;;;;;;;1999.90;999.90;;;13.20;99.90;;;;;;5069235;28;20397;-65
2021/05/22 11:17:28;;;;;;;1999.90;999.90;;;13.10;99.90;;;;;;5069500;28;20401;-66
2021/05/22 11:19:57;;;;;;;1999.90;999.90;;;13.00;99.90;;;;;;5069615;28;20389;-67
2021/05/22 11:22:23;;;;;;;1999.90;999.90;;;13.10;99.90;;;;;;5069644;28;20570;-66
2021/05/22 11:25:05;;;;;;;1999.90;999.90;;;13.10;99.90;;;;;;5068587;28;20406;-66
2021/05/22 11:27:51;;;;;;;1999.90;999.90;;;13.10;99.90;;;;;;5068585;28;20452;-66
2021/05/22 11:30:27;;;;;;;1999.90;999.90;;;13.10;99.90;;;;;;5069215;28;20389;-66
2021/05/22 11:32:54;;;;;;;1999.90;999.90;;;13.20;99.90;;;;;;5068612;28;20462;-67
2021/05/22 11:35:34;;;;;;;1999.90;999.90;;;13.20;99.90;;;;;;5065167;28;20409;-67
2021/05/22 11:38:15;;;;;;;1999.90;999.90;;;13.20;99.90;;;;;;5046648;28;20457;-67
2021/05/22 11:40:40;;;;;;;1999.90;999.90;;;13.10;99.90;;;;;;5045546;28;20767;-67
2021/05/22 11:43:12;;;;;;;1999.90;999.90;;;13.00;99.90;;;;;;5045616;28;20456;-66
2021/05/22 11:45:44;;;;;;;1999.90;999.90;;;13.00;99.90;;;;;;5044715;28;20238;-67
2021/05/22 11:48:26;;;;;;;1999.90;999.90;;;13.00;99.90;;;;;;5046990;28;20442;-67
2021/05/22 11:50:56;;;;;;;1999.90;999.90;;;12.90;99.90;;;;;;5049597;28;20417;-67
2021/05/22 11:53:22;;;;;;;1999.90;999.90;;;12.90;99.90;;;;;;5048690;28;20410;-67
2021/05/22 11:56:02;;;;;;;1999.90;999.90;;;12.80;99.90;;;;;;5048835;28;20418;-68
2021/05/22 11:58:29;;;;;;;1999.90;999.90;;;13.00;99.90;;;;;;5049203;28;20434;-67
2021/05/22 12:00:55;;;;;;;1999.90;999.90;;;13.00;99.90;;;;;;5048984;28;20413;-67
2021/05/22 12:03:25;;;;;;;1999.90;999.90;;;13.00;99.90;;;;;;5048871;28;20418;-67